Pagrindinis puslapis
METAR-TAF:

METAR-TAF

Oro uostai :

Pskovas, Rusija

platuma: 57-47-06N, ilguma: 028-23-54E, Aukštis: 47 m

Dabartinis oras

Ataskaita buvo paskelbta 18 minutes, ne 08:00 UTC
Vėjas 6 kt iš Vakarų/Pietvakarių
Temperatūra 12°C
Drėgmė 82%
Slėgis 1015 hPa
Apsiniaukę ne aukštis 1000 ft

METAR: ULOO 180800Z 24003MPS P5000 OVC010 12/09 Q1015 R19/290055 NOSIG RMK QFE757

Laikas: 11:18 (08:18 UTC)

Prognozė

Ataskaita buvo paskelbta 3 valandos ir 23 minutes, ne 04:55 UTC
Prognozė galioja nuo 18 metu 06 UTC su 18 metu 15 UTC
Vėjas 6 kt iš Pietvakarių
Matomumas: 6000 m
Su prošvaistėmis ne aukštis 1100 ft
Laikinai
nuo 18 metu 06 UTC su 18 metu 15 UTC
Matomumas: 3100 m
Su prošvaistėmis ne aukštis 1000 ft
Su prošvaistėmis ne aukštis 1600 ft, Liūtiniai kamuoliniai debesys.
lietus, rūkana
Tapsmas
nuo 18 metu 11 UTC su 18 metu 12 UTC
Vėjas 6 kt iš Pietų

TAF: ULOO 180455Z 1806/1815 23003MPS 6000 BKN011 TEMPO 1806/1815 3100 -SHRA BR BKN010 BKN016CB BECMG 1811/1812 19003MPS

Orai ataskaitas ir orų prognozės (METAR, TAF).

turimą stotys yra geltonos ir raudonos taškus žemėlapyje.

Perkelti pele per norėdami pamatyti stoties vardą.

Tada spustelėkite, norėdami matyti oro stebėjimo ir prognozės.

Norėdami pakeisti žemėlapį: spustelėkite ant žalios mygtukų su juodo kryžiaus žemyn,; žalią mygtuką su brūkšneliu, jei norite nutolinti; arba žalių rodyklių gretimoms žemėlapius.


METAR-TAF: